sensor_id;sensor_type;location;lat;lon;timestamp;P1;durP1;ratioP1;P2;durP2;ratioP2
15240;SDS011;7723;52.170;9.978;2022-08-24T00:01:59;2.20;;;1.50;;
15240;SDS011;7723;52.170;9.978;2022-08-24T00:04:26;5.90;;;2.15;;
15240;SDS011;7723;52.170;9.978;2022-08-24T00:06:54;3.92;;;1.58;;
15240;SDS011;7723;52.170;9.978;2022-08-24T00:09:21;4.18;;;1.92;;
15240;SDS011;7723;52.170;9.978;2022-08-24T00:11:48;7.70;;;1.80;;
15240;SDS011;7723;52.170;9.978;2022-08-24T00:14:15;4.25;;;1.73;;
15240;SDS011;7723;52.170;9.978;2022-08-24T00:16:42;3.10;;;1.70;;
15240;SDS011;7723;52.170;9.978;2022-08-24T00:19:11;2.67;;;1.70;;
15240;SDS011;7723;52.170;9.978;2022-08-24T00:21:39;4.80;;;1.77;;
15240;SDS011;7723;52.170;9.978;2022-08-24T00:24:06;3.08;;;1.88;;
15240;SDS011;7723;52.170;9.978;2022-08-24T00:26:33;5.45;;;1.88;;
15240;SDS011;7723;52.170;9.978;2022-08-24T00:29:01;2.63;;;1.90;;
15240;SDS011;7723;52.170;9.978;2022-08-24T00:31:28;3.40;;;1.80;;
15240;SDS011;7723;52.170;9.978;2022-08-24T00:33:55;5.45;;;2.15;;
15240;SDS011;7723;52.170;9.978;2022-08-24T00:36:25;3.03;;;2.10;;
15240;SDS011;7723;52.170;9.978;2022-08-24T00:38:52;2.53;;;1.50;;
15240;SDS011;7723;52.170;9.978;2022-08-24T00:41:19;2.40;;;1.63;;
15240;SDS011;7723;52.170;9.978;2022-08-24T00:43:51;6.32;;;1.50;;
15240;SDS011;7723;52.170;9.978;2022-08-24T00:46:20;3.65;;;2.10;;
15240;SDS011;7723;52.170;9.978;2022-08-24T00:48:52;6.05;;;1.88;;
15240;SDS011;7723;52.170;9.978;2022-08-24T00:51:30;1.80;;;1.60;;
15240;SDS011;7723;52.170;9.978;2022-08-24T00:54:04;2.10;;;1.58;;
15240;SDS011;7723;52.170;9.978;2022-08-24T00:56:34;3.72;;;1.70;;
15240;SDS011;7723;52.170;9.978;2022-08-24T00:59:06;2.40;;;1.83;;
15240;SDS011;7723;52.170;9.978;2022-08-24T01:01:46;2.78;;;1.92;;
15240;SDS011;7723;52.170;9.978;2022-08-24T01:04:17;2.75;;;1.67;;
15240;SDS011;7723;52.170;9.978;2022-08-24T01:06:49;6.20;;;1.88;;
15240;SDS011;7723;52.170;9.978;2022-08-24T01:09:16;4.93;;;2.03;;
15240;SDS011;7723;52.170;9.978;2022-08-24T01:11:43;2.00;;;1.80;;
15240;SDS011;7723;52.170;9.978;2022-08-24T01:14:11;3.80;;;1.80;;
15240;SDS011;7723;52.170;9.978;2022-08-24T01:16:38;2.55;;;2.03;;
15240;SDS011;7723;52.170;9.978;2022-08-24T01:19:27;2.28;;;1.88;;
15240;SDS011;7723;52.170;9.978;2022-08-24T01:22:03;2.85;;;1.73;;
15240;SDS011;7723;52.170;9.978;2022-08-24T01:24:42;2.40;;;1.80;;
15240;SDS011;7723;52.170;9.978;2022-08-24T01:27:10;6.55;;;2.30;;
15240;SDS011;7723;52.170;9.978;2022-08-24T01:29:40;2.00;;;1.77;;
15240;SDS011;7723;52.170;9.978;2022-08-24T01:32:09;4.32;;;1.80;;
15240;SDS011;7723;52.170;9.978;2022-08-24T01:34:37;4.90;;;2.10;;
15240;SDS011;7723;52.170;9.978;2022-08-24T01:37:04;1.95;;;1.65;;
15240;SDS011;7723;52.170;9.978;2022-08-24T01:39:35;3.53;;;1.63;;
15240;SDS011;7723;52.170;9.978;2022-08-24T01:42:07;4.18;;;2.10;;
15240;SDS011;7723;52.170;9.978;2022-08-24T01:44:35;4.28;;;1.83;;
15240;SDS011;7723;52.170;9.978;2022-08-24T01:47:04;2.25;;;1.90;;
15240;SDS011;7723;52.170;9.978;2022-08-24T01:49:34;3.90;;;1.80;;
15240;SDS011;7723;52.170;9.978;2022-08-24T01:52:03;3.47;;;2.00;;
15240;SDS011;7723;52.170;9.978;2022-08-24T01:54:31;2.65;;;1.98;;
15240;SDS011;7723;52.170;9.978;2022-08-24T01:56:59;4.50;;;2.00;;
15240;SDS011;7723;52.170;9.978;2022-08-24T01:59:29;5.55;;;1.85;;
15240;SDS011;7723;52.170;9.978;2022-08-24T02:01:57;3.63;;;1.70;;
15240;SDS011;7723;52.170;9.978;2022-08-24T02:04:27;3.63;;;2.03;;
15240;SDS011;7723;52.170;9.978;2022-08-24T02:06:55;2.75;;;2.00;;
15240;SDS011;7723;52.170;9.978;2022-08-24T02:09:23;2.42;;;1.95;;
15240;SDS011;7723;52.170;9.978;2022-08-24T02:11:50;3.40;;;1.98;;
15240;SDS011;7723;52.170;9.978;2022-08-24T02:14:18;11.77;;;2.60;;
15240;SDS011;7723;52.170;9.978;2022-08-24T02:16:46;4.32;;;1.90;;
15240;SDS011;7723;52.170;9.978;2022-08-24T02:19:13;3.03;;;2.00;;
15240;SDS011;7723;52.170;9.978;2022-08-24T02:21:41;2.13;;;1.73;;
15240;SDS011;7723;52.170;9.978;2022-08-24T02:24:08;2.53;;;1.95;;
15240;SDS011;7723;52.170;9.978;2022-08-24T02:26:35;3.17;;;2.17;;
15240;SDS011;7723;52.170;9.978;2022-08-24T02:29:02;3.13;;;1.88;;
15240;SDS011;7723;52.170;9.978;2022-08-24T02:31:30;5.05;;;2.28;;
15240;SDS011;7723;52.170;9.978;2022-08-24T02:33:59;5.32;;;2.35;;
15240;SDS011;7723;52.170;9.978;2022-08-24T02:36:27;4.53;;;2.40;;
15240;SDS011;7723;52.170;9.978;2022-08-24T02:38:55;2.30;;;2.10;;
15240;SDS011;7723;52.170;9.978;2022-08-24T02:41:23;3.70;;;1.88;;
15240;SDS011;7723;52.170;9.978;2022-08-24T02:43:50;3.60;;;2.25;;
15240;SDS011;7723;52.170;9.978;2022-08-24T02:46:18;3.63;;;2.13;;
15240;SDS011;7723;52.170;9.978;2022-08-24T02:48:47;5.65;;;2.50;;
15240;SDS011;7723;52.170;9.978;2022-08-24T02:51:20;4.60;;;2.30;;
15240;SDS011;7723;52.170;9.978;2022-08-24T02:53:48;4.60;;;2.17;;
15240;SDS011;7723;52.170;9.978;2022-08-24T02:56:16;3.72;;;2.25;;
15240;SDS011;7723;52.170;9.978;2022-08-24T02:58:43;2.55;;;1.92;;
15240;SDS011;7723;52.170;9.978;2022-08-24T03:01:11;4.22;;;2.00;;
15240;SDS011;7723;52.170;9.978;2022-08-24T03:03:39;4.82;;;2.50;;
15240;SDS011;7723;52.170;9.978;2022-08-24T03:06:07;3.75;;;2.33;;
15240;SDS011;7723;52.170;9.978;2022-08-24T03:08:36;2.30;;;1.90;;
15240;SDS011;7723;52.170;9.978;2022-08-24T03:11:04;3.95;;;2.17;;
15240;SDS011;7723;52.170;9.978;2022-08-24T03:13:32;3.42;;;1.92;;
15240;SDS011;7723;52.170;9.978;2022-08-24T03:16:00;4.78;;;3.30;;
15240;SDS011;7723;52.170;9.978;2022-08-24T03:18:28;2.53;;;1.90;;
15240;SDS011;7723;52.170;9.978;2022-08-24T03:20:56;2.55;;;2.22;;
15240;SDS011;7723;52.170;9.978;2022-08-24T03:23:24;4.75;;;2.13;;
15240;SDS011;7723;52.170;9.978;2022-08-24T03:25:54;4.32;;;2.05;;
15240;SDS011;7723;52.170;9.978;2022-08-24T03:28:22;4.10;;;2.03;;
15240;SDS011;7723;52.170;9.978;2022-08-24T03:30:50;2.53;;;2.33;;
15240;SDS011;7723;52.170;9.978;2022-08-24T03:33:17;3.70;;;2.30;;
15240;SDS011;7723;52.170;9.978;2022-08-24T03:35:45;3.03;;;2.13;;
15240;SDS011;7723;52.170;9.978;2022-08-24T03:38:13;3.42;;;2.10;;
15240;SDS011;7723;52.170;9.978;2022-08-24T03:40:40;3.83;;;2.10;;
15240;SDS011;7723;52.170;9.978;2022-08-24T03:43:09;6.50;;;2.30;;
15240;SDS011;7723;52.170;9.978;2022-08-24T03:45:57;4.07;;;2.38;;
15240;SDS011;7723;52.170;9.978;2022-08-24T03:48:27;3.85;;;2.25;;
15240;SDS011;7723;52.170;9.978;2022-08-24T03:50:54;3.47;;;2.25;;
15240;SDS011;7723;52.170;9.978;2022-08-24T03:53:21;5.85;;;3.03;;
15240;SDS011;7723;52.170;9.978;2022-08-24T03:55:49;4.63;;;2.70;;
15240;SDS011;7723;52.170;9.978;2022-08-24T03:58:18;2.40;;;2.10;;
15240;SDS011;7723;52.170;9.978;2022-08-24T04:00:45;6.40;;;2.67;;
15240;SDS011;7723;52.170;9.978;2022-08-24T04:03:12;3.72;;;2.28;;
15240;SDS011;7723;52.170;9.978;2022-08-24T04:05:40;8.88;;;2.72;;
15240;SDS011;7723;52.170;9.978;2022-08-24T04:08:07;9.57;;;2.88;;
15240;SDS011;7723;52.170;9.978;2022-08-24T04:10:35;8.90;;;3.20;;
15240;SDS011;7723;52.170;9.978;2022-08-24T04:13:03;6.63;;;2.92;;
15240;SDS011;7723;52.170;9.978;2022-08-24T04:15:37;7.93;;;2.75;;
15240;SDS011;7723;52.170;9.978;2022-08-24T04:18:05;8.10;;;3.58;;
15240;SDS011;7723;52.170;9.978;2022-08-24T04:20:36;5.93;;;3.15;;
15240;SDS011;7723;52.170;9.978;2022-08-24T04:23:04;5.32;;;2.83;;
15240;SDS011;7723;52.170;9.978;2022-08-24T04:25:37;4.90;;;2.58;;
15240;SDS011;7723;52.170;9.978;2022-08-24T04:28:06;6.50;;;2.90;;
15240;SDS011;7723;52.170;9.978;2022-08-24T04:30:37;4.43;;;2.70;;
15240;SDS011;7723;52.170;9.978;2022-08-24T04:33:06;6.88;;;2.95;;
15240;SDS011;7723;52.170;9.978;2022-08-24T04:35:35;3.10;;;2.58;;
15240;SDS011;7723;52.170;9.978;2022-08-24T04:38:03;4.35;;;2.28;;
15240;SDS011;7723;52.170;9.978;2022-08-24T04:40:31;7.43;;;3.00;;
15240;SDS011;7723;52.170;9.978;2022-08-24T04:42:58;6.78;;;2.40;;
15240;SDS011;7723;52.170;9.978;2022-08-24T04:45:25;5.45;;;2.80;;
15240;SDS011;7723;52.170;9.978;2022-08-24T04:47:54;8.20;;;3.25;;
15240;SDS011;7723;52.170;9.978;2022-08-24T04:50:21;4.72;;;3.10;;
15240;SDS011;7723;52.170;9.978;2022-08-24T04:52:48;7.03;;;3.17;;
15240;SDS011;7723;52.170;9.978;2022-08-24T04:55:16;5.05;;;2.97;;
15240;SDS011;7723;52.170;9.978;2022-08-24T04:57:43;9.43;;;3.25;;
15240;SDS011;7723;52.170;9.978;2022-08-24T05:00:10;3.80;;;2.97;;
15240;SDS011;7723;52.170;9.978;2022-08-24T05:02:38;3.63;;;2.78;;
15240;SDS011;7723;52.170;9.978;2022-08-24T05:05:07;4.18;;;3.00;;
15240;SDS011;7723;52.170;9.978;2022-08-24T05:07:35;5.25;;;2.80;;
15240;SDS011;7723;52.170;9.978;2022-08-24T05:10:04;5.47;;;2.95;;
15240;SDS011;7723;52.170;9.978;2022-08-24T05:12:32;4.45;;;3.03;;
15240;SDS011;7723;52.170;9.978;2022-08-24T05:14:59;5.43;;;3.05;;
15240;SDS011;7723;52.170;9.978;2022-08-24T05:17:26;5.20;;;2.55;;
15240;SDS011;7723;52.170;9.978;2022-08-24T05:19:54;4.20;;;3.13;;
15240;SDS011;7723;52.170;9.978;2022-08-24T05:22:24;6.80;;;3.22;;
15240;SDS011;7723;52.170;9.978;2022-08-24T05:24:51;6.53;;;3.00;;
15240;SDS011;7723;52.170;9.978;2022-08-24T05:27:18;7.30;;;3.20;;
15240;SDS011;7723;52.170;9.978;2022-08-24T05:29:45;6.85;;;3.45;;
15240;SDS011;7723;52.170;9.978;2022-08-24T05:32:12;3.42;;;2.97;;
15240;SDS011;7723;52.170;9.978;2022-08-24T05:34:42;5.63;;;2.80;;
15240;SDS011;7723;52.170;9.978;2022-08-24T05:37:09;5.13;;;2.63;;
15240;SDS011;7723;52.170;9.978;2022-08-24T05:39:38;4.05;;;2.80;;
15240;SDS011;7723;52.170;9.978;2022-08-24T05:42:05;5.18;;;2.70;;
15240;SDS011;7723;52.170;9.978;2022-08-24T05:44:33;6.07;;;3.60;;
15240;SDS011;7723;52.170;9.978;2022-08-24T05:47:00;5.95;;;3.05;;
15240;SDS011;7723;52.170;9.978;2022-08-24T05:49:27;6.15;;;3.17;;
15240;SDS011;7723;52.170;9.978;2022-08-24T05:51:55;6.10;;;3.00;;
15240;SDS011;7723;52.170;9.978;2022-08-24T05:54:22;3.28;;;2.70;;
15240;SDS011;7723;52.170;9.978;2022-08-24T05:56:52;4.75;;;3.13;;
15240;SDS011;7723;52.170;9.978;2022-08-24T05:59:21;3.22;;;2.78;;
15240;SDS011;7723;52.170;9.978;2022-08-24T06:01:48;4.80;;;2.75;;
15240;SDS011;7723;52.170;9.978;2022-08-24T06:04:15;4.93;;;3.00;;
15240;SDS011;7723;52.170;9.978;2022-08-24T06:06:43;2.83;;;2.53;;
15240;SDS011;7723;52.170;9.978;2022-08-24T06:09:11;3.90;;;2.45;;
15240;SDS011;7723;52.170;9.978;2022-08-24T06:11:39;4.40;;;2.90;;
15240;SDS011;7723;52.170;9.978;2022-08-24T06:14:08;5.13;;;2.60;;
15240;SDS011;7723;52.170;9.978;2022-08-24T06:16:38;2.95;;;2.38;;
15240;SDS011;7723;52.170;9.978;2022-08-24T06:19:07;3.55;;;2.60;;
15240;SDS011;7723;52.170;9.978;2022-08-24T06:21:36;2.95;;;2.60;;
15240;SDS011;7723;52.170;9.978;2022-08-24T06:24:03;3.08;;;2.42;;
15240;SDS011;7723;52.170;9.978;2022-08-24T06:26:31;4.30;;;2.58;;
15240;SDS011;7723;52.170;9.978;2022-08-24T06:29:17;2.90;;;2.40;;
15240;SDS011;7723;52.170;9.978;2022-08-24T06:31:45;4.13;;;2.63;;
15240;SDS011;7723;52.170;9.978;2022-08-24T06:34:15;2.65;;;2.20;;
15240;SDS011;7723;52.170;9.978;2022-08-24T06:36:44;6.15;;;3.08;;
15240;SDS011;7723;52.170;9.978;2022-08-24T06:39:12;3.17;;;2.00;;
15240;SDS011;7723;52.170;9.978;2022-08-24T06:41:39;4.37;;;2.63;;
15240;SDS011;7723;52.170;9.978;2022-08-24T06:44:07;5.88;;;2.63;;
15240;SDS011;7723;52.170;9.978;2022-08-24T06:46:35;5.30;;;3.20;;
15240;SDS011;7723;52.170;9.978;2022-08-24T06:49:03;2.90;;;2.40;;
15240;SDS011;7723;52.170;9.978;2022-08-24T06:51:30;3.90;;;2.38;;
15240;SDS011;7723;52.170;9.978;2022-08-24T06:53:57;4.32;;;2.55;;
15240;SDS011;7723;52.170;9.978;2022-08-24T06:56:25;3.78;;;2.60;;
15240;SDS011;7723;52.170;9.978;2022-08-24T06:58:53;3.60;;;2.47;;
15240;SDS011;7723;52.170;9.978;2022-08-24T07:01:21;4.13;;;2.88;;
15240;SDS011;7723;52.170;9.978;2022-08-24T07:03:52;2.80;;;2.50;;
15240;SDS011;7723;52.170;9.978;2022-08-24T07:06:20;4.50;;;2.95;;
15240;SDS011;7723;52.170;9.978;2022-08-24T07:08:49;3.35;;;2.28;;
15240;SDS011;7723;52.170;9.978;2022-08-24T07:11:17;2.60;;;2.40;;
15240;SDS011;7723;52.170;9.978;2022-08-24T07:13:45;2.72;;;2.53;;
15240;SDS011;7723;52.170;9.978;2022-08-24T07:16:13;4.03;;;2.38;;
15240;SDS011;7723;52.170;9.978;2022-08-24T07:18:40;3.22;;;2.40;;
15240;SDS011;7723;52.170;9.978;2022-08-24T07:21:09;2.70;;;2.30;;
15240;SDS011;7723;52.170;9.978;2022-08-24T07:23:37;2.20;;;2.00;;
15240;SDS011;7723;52.170;9.978;2022-08-24T07:26:04;3.58;;;2.40;;
15240;SDS011;7723;52.170;9.978;2022-08-24T07:28:34;5.40;;;2.85;;
15240;SDS011;7723;52.170;9.978;2022-08-24T07:31:03;2.95;;;2.25;;
15240;SDS011;7723;52.170;9.978;2022-08-24T07:33:30;9.48;;;2.75;;
15240;SDS011;7723;52.170;9.978;2022-08-24T07:35:57;2.85;;;2.58;;
15240;SDS011;7723;52.170;9.978;2022-08-24T07:38:26;4.95;;;2.20;;
15240;SDS011;7723;52.170;9.978;2022-08-24T07:40:54;5.03;;;2.20;;
15240;SDS011;7723;52.170;9.978;2022-08-24T07:43:21;3.47;;;2.15;;
15240;SDS011;7723;52.170;9.978;2022-08-24T07:45:48;2.67;;;2.35;;
15240;SDS011;7723;52.170;9.978;2022-08-24T07:48:16;5.13;;;2.45;;
15240;SDS011;7723;52.170;9.978;2022-08-24T07:50:44;3.53;;;2.15;;
15240;SDS011;7723;52.170;9.978;2022-08-24T07:53:11;4.00;;;2.10;;
15240;SDS011;7723;52.170;9.978;2022-08-24T07:55:40;3.67;;;2.50;;
15240;SDS011;7723;52.170;9.978;2022-08-24T07:58:08;3.13;;;2.40;;
15240;SDS011;7723;52.170;9.978;2022-08-24T08:00:35;4.05;;;2.38;;
15240;SDS011;7723;52.170;9.978;2022-08-24T08:03:02;2.30;;;2.10;;
15240;SDS011;7723;52.170;9.978;2022-08-24T08:05:30;3.35;;;2.20;;
15240;SDS011;7723;52.170;9.978;2022-08-24T08:07:57;3.67;;;2.38;;
15240;SDS011;7723;52.170;9.978;2022-08-24T08:10:24;5.93;;;2.50;;
15240;SDS011;7723;52.170;9.978;2022-08-24T08:12:56;3.42;;;2.30;;
15240;SDS011;7723;52.170;9.978;2022-08-24T08:15:23;6.10;;;2.30;;
15240;SDS011;7723;52.170;9.978;2022-08-24T08:17:50;4.13;;;2.20;;
15240;SDS011;7723;52.170;9.978;2022-08-24T08:20:18;4.15;;;2.47;;
15240;SDS011;7723;52.170;9.978;2022-08-24T08:22:45;2.50;;;2.17;;
15240;SDS011;7723;52.170;9.978;2022-08-24T08:25:30;7.25;;;2.53;;
15240;SDS011;7723;52.170;9.978;2022-08-24T08:28:00;5.38;;;2.55;;
15240;SDS011;7723;52.170;9.978;2022-08-24T08:30:28;3.05;;;2.25;;
15240;SDS011;7723;52.170;9.978;2022-08-24T08:32:55;8.90;;;2.63;;
15240;SDS011;7723;52.170;9.978;2022-08-24T08:35:22;3.55;;;2.47;;
15240;SDS011;7723;52.170;9.978;2022-08-24T08:37:50;4.50;;;2.38;;
15240;SDS011;7723;52.170;9.978;2022-08-24T08:40:21;3.47;;;2.20;;
15240;SDS011;7723;52.170;9.978;2022-08-24T08:43:03;7.18;;;3.05;;
15240;SDS011;7723;52.170;9.978;2022-08-24T08:45:38;3.13;;;2.60;;
15240;SDS011;7723;52.170;9.978;2022-08-24T08:48:38;6.55;;;2.50;;
15240;SDS011;7723;52.170;9.978;2022-08-24T08:51:42;3.83;;;2.15;;
15240;SDS011;7723;52.170;9.978;2022-08-24T08:54:50;6.43;;;3.30;;
15240;SDS011;7723;52.170;9.978;2022-08-24T08:57:55;5.20;;;2.35;;
15240;SDS011;7723;52.170;9.978;2022-08-24T09:00:41;11.15;;;4.05;;
15240;SDS011;7723;52.170;9.978;2022-08-24T09:03:23;3.78;;;2.60;;
15240;SDS011;7723;52.170;9.978;2022-08-24T09:06:15;7.63;;;2.30;;
15240;SDS011;7723;52.170;9.978;2022-08-24T09:08:58;4.38;;;2.72;;
15240;SDS011;7723;52.170;9.978;2022-08-24T09:11:43;3.75;;;2.42;;
15240;SDS011;7723;52.170;9.978;2022-08-24T09:20:22;4.70;;;2.60;;
15240;SDS011;7723;52.170;9.978;2022-08-24T09:23:15;2.97;;;2.20;;
15240;SDS011;7723;52.170;9.978;2022-08-24T09:25:56;2.70;;;2.38;;
15240;SDS011;7723;52.170;9.978;2022-08-24T09:28:35;5.38;;;2.38;;
15240;SDS011;7723;52.170;9.978;2022-08-24T09:31:22;6.30;;;2.55;;
15240;SDS011;7723;52.170;9.978;2022-08-24T09:34:09;2.92;;;2.30;;
15240;SDS011;7723;52.170;9.978;2022-08-24T09:36:54;3.15;;;2.65;;
15240;SDS011;7723;52.170;9.978;2022-08-24T09:39:34;2.67;;;2.17;;
15240;SDS011;7723;52.170;9.978;2022-08-24T09:45:24;2.75;;;2.53;;
15240;SDS011;7723;52.170;9.978;2022-08-24T09:54:42;2.55;;;2.30;;
15240;SDS011;7723;52.170;9.978;2022-08-24T09:57:39;2.20;;;2.00;;
15240;SDS011;7723;52.170;9.978;2022-08-24T10:00:19;4.65;;;2.78;;
15240;SDS011;7723;52.170;9.978;2022-08-24T10:03:06;2.75;;;2.40;;
15240;SDS011;7723;52.170;9.978;2022-08-24T10:06:02;2.30;;;2.10;;
15240;SDS011;7723;52.170;9.978;2022-08-24T10:08:47;2.42;;;2.20;;
15240;SDS011;7723;52.170;9.978;2022-08-24T10:11:35;4.88;;;2.65;;
15240;SDS011;7723;52.170;9.978;2022-08-24T10:14:12;2.45;;;2.25;;
15240;SDS011;7723;52.170;9.978;2022-08-24T10:16:46;2.45;;;2.20;;
15240;SDS011;7723;52.170;9.978;2022-08-24T10:19:34;2.95;;;2.28;;
15240;SDS011;7723;52.170;9.978;2022-08-24T10:22:12;2.67;;;2.47;;
15240;SDS011;7723;52.170;9.978;2022-08-24T10:24:54;3.60;;;1.98;;
15240;SDS011;7723;52.170;9.978;2022-08-24T10:27:38;5.63;;;2.53;;
15240;SDS011;7723;52.170;9.978;2022-08-24T10:30:36;3.08;;;2.45;;
15240;SDS011;7723;52.170;9.978;2022-08-24T10:33:18;2.50;;;2.00;;
15240;SDS011;7723;52.170;9.978;2022-08-24T10:36:06;4.00;;;2.20;;
15240;SDS011;7723;52.170;9.978;2022-08-24T10:38:49;2.45;;;2.10;;
15240;SDS011;7723;52.170;9.978;2022-08-24T10:41:59;8.57;;;2.25;;
15240;SDS011;7723;52.170;9.978;2022-08-24T10:45:11;2.30;;;1.80;;
15240;SDS011;7723;52.170;9.978;2022-08-24T10:47:56;1.90;;;1.80;;
15240;SDS011;7723;52.170;9.978;2022-08-24T10:50:40;4.85;;;1.70;;
15240;SDS011;7723;52.170;9.978;2022-08-24T10:53:19;2.90;;;1.85;;
15240;SDS011;7723;52.170;9.978;2022-08-24T10:55:56;4.03;;;1.90;;
15240;SDS011;7723;52.170;9.978;2022-08-24T11:01:23;2.50;;;1.83;;
15240;SDS011;7723;52.170;9.978;2022-08-24T11:03:58;3.92;;;1.73;;
15240;SDS011;7723;52.170;9.978;2022-08-24T11:06:32;1.98;;;1.50;;
15240;SDS011;7723;52.170;9.978;2022-08-24T11:09:03;1.77;;;1.60;;
15240;SDS011;7723;52.170;9.978;2022-08-24T11:11:34;4.25;;;1.55;;
15240;SDS011;7723;52.170;9.978;2022-08-24T11:14:05;2.20;;;1.80;;
15240;SDS011;7723;52.170;9.978;2022-08-24T11:16:36;2.10;;;1.70;;
15240;SDS011;7723;52.170;9.978;2022-08-24T11:19:07;6.25;;;2.17;;
15240;SDS011;7723;52.170;9.978;2022-08-24T11:21:45;6.93;;;2.25;;
15240;SDS011;7723;52.170;9.978;2022-08-24T11:24:27;5.10;;;2.28;;
15240;SDS011;7723;52.170;9.978;2022-08-24T11:27:04;2.47;;;1.73;;
15240;SDS011;7723;52.170;9.978;2022-08-24T11:29:55;7.05;;;2.30;;
15240;SDS011;7723;52.170;9.978;2022-08-24T11:32:26;2.00;;;1.80;;
15240;SDS011;7723;52.170;9.978;2022-08-24T11:35:02;1.92;;;1.73;;
15240;SDS011;7723;52.170;9.978;2022-08-24T11:37:32;3.15;;;1.63;;
15240;SDS011;7723;52.170;9.978;2022-08-24T11:40:01;2.50;;;1.95;;
15240;SDS011;7723;52.170;9.978;2022-08-24T11:42:35;2.67;;;2.25;;
15240;SDS011;7723;52.170;9.978;2022-08-24T11:45:19;4.20;;;2.05;;
15240;SDS011;7723;52.170;9.978;2022-08-24T11:47:55;3.80;;;2.20;;
15240;SDS011;7723;52.170;9.978;2022-08-24T11:50:33;3.55;;;2.05;;
15240;SDS011;7723;52.170;9.978;2022-08-24T11:53:07;3.58;;;1.73;;
15240;SDS011;7723;52.170;9.978;2022-08-24T11:55:41;3.65;;;2.10;;
15240;SDS011;7723;52.170;9.978;2022-08-24T11:58:15;1.70;;;1.60;;
15240;SDS011;7723;52.170;9.978;2022-08-24T12:00:53;3.47;;;1.73;;
15240;SDS011;7723;52.170;9.978;2022-08-24T12:03:28;4.32;;;1.90;;
15240;SDS011;7723;52.170;9.978;2022-08-24T12:06:22;1.50;;;1.40;;
15240;SDS011;7723;52.170;9.978;2022-08-24T12:08:58;3.05;;;1.90;;
15240;SDS011;7723;52.170;9.978;2022-08-24T12:11:36;2.05;;;1.65;;
15240;SDS011;7723;52.170;9.978;2022-08-24T12:14:12;5.22;;;1.80;;
15240;SDS011;7723;52.170;9.978;2022-08-24T12:16:50;3.13;;;1.80;;
15240;SDS011;7723;52.170;9.978;2022-08-24T12:19:24;3.67;;;1.83;;
15240;SDS011;7723;52.170;9.978;2022-08-24T12:21:55;4.55;;;1.80;;
15240;SDS011;7723;52.170;9.978;2022-08-24T12:24:29;3.63;;;1.88;;
15240;SDS011;7723;52.170;9.978;2022-08-24T12:27:02;3.95;;;1.85;;
15240;SDS011;7723;52.170;9.978;2022-08-24T12:29:36;2.25;;;2.00;;
15240;SDS011;7723;52.170;9.978;2022-08-24T12:32:11;3.40;;;2.10;;
15240;SDS011;7723;52.170;9.978;2022-08-24T12:34:48;2.90;;;2.15;;
15240;SDS011;7723;52.170;9.978;2022-08-24T12:37:21;3.90;;;2.00;;
15240;SDS011;7723;52.170;9.978;2022-08-24T12:39:54;4.07;;;1.92;;
15240;SDS011;7723;52.170;9.978;2022-08-24T12:42:28;3.55;;;2.00;;
15240;SDS011;7723;52.170;9.978;2022-08-24T12:45:03;2.88;;;2.40;;
15240;SDS011;7723;52.170;9.978;2022-08-24T12:47:38;3.83;;;2.28;;
15240;SDS011;7723;52.170;9.978;2022-08-24T12:50:13;2.58;;;2.10;;
15240;SDS011;7723;52.170;9.978;2022-08-24T12:53:01;4.28;;;2.17;;
15240;SDS011;7723;52.170;9.978;2022-08-24T12:56:12;5.75;;;2.45;;
15240;SDS011;7723;52.170;9.978;2022-08-24T12:59:02;5.43;;;2.30;;
15240;SDS011;7723;52.170;9.978;2022-08-24T13:01:38;5.10;;;2.00;;
15240;SDS011;7723;52.170;9.978;2022-08-24T13:04:13;3.55;;;2.30;;
15240;SDS011;7723;52.170;9.978;2022-08-24T13:06:45;4.53;;;2.20;;
15240;SDS011;7723;52.170;9.978;2022-08-24T13:09:26;2.50;;;1.98;;
15240;SDS011;7723;52.170;9.978;2022-08-24T13:11:56;3.95;;;2.60;;
15240;SDS011;7723;52.170;9.978;2022-08-24T13:14:25;2.60;;;1.90;;
15240;SDS011;7723;52.170;9.978;2022-08-24T13:17:08;4.00;;;2.08;;
15240;SDS011;7723;52.170;9.978;2022-08-24T13:19:39;3.03;;;2.20;;
15240;SDS011;7723;52.170;9.978;2022-08-24T13:25:21;2.17;;;1.98;;
15240;SDS011;7723;52.170;9.978;2022-08-24T13:28:04;4.28;;;2.10;;
15240;SDS011;7723;52.170;9.978;2022-08-24T13:30:37;3.88;;;2.00;;
15240;SDS011;7723;52.170;9.978;2022-08-24T13:33:26;4.43;;;2.30;;
15240;SDS011;7723;52.170;9.978;2022-08-24T13:36:03;3.05;;;2.35;;
15240;SDS011;7723;52.170;9.978;2022-08-24T13:41:44;4.80;;;1.83;;
15240;SDS011;7723;52.170;9.978;2022-08-24T13:44:40;3.50;;;2.10;;
15240;SDS011;7723;52.170;9.978;2022-08-24T13:47:18;2.50;;;2.13;;
15240;SDS011;7723;52.170;9.978;2022-08-24T13:49:57;3.80;;;2.25;;
15240;SDS011;7723;52.170;9.978;2022-08-24T13:52:46;2.28;;;2.00;;
15240;SDS011;7723;52.170;9.978;2022-08-24T13:55:27;4.20;;;2.22;;
15240;SDS011;7723;52.170;9.978;2022-08-24T13:58:05;3.63;;;2.15;;
15240;SDS011;7723;52.170;9.978;2022-08-24T14:00:42;3.88;;;2.22;;
15240;SDS011;7723;52.170;9.978;2022-08-24T14:03:18;2.92;;;2.30;;
15240;SDS011;7723;52.170;9.978;2022-08-24T14:06:02;4.05;;;2.60;;
15240;SDS011;7723;52.170;9.978;2022-08-24T14:08:46;7.10;;;2.50;;
15240;SDS011;7723;52.170;9.978;2022-08-24T14:11:30;5.78;;;2.60;;
15240;SDS011;7723;52.170;9.978;2022-08-24T14:14:07;2.85;;;2.30;;
15240;SDS011;7723;52.170;9.978;2022-08-24T14:16:44;3.90;;;2.00;;
15240;SDS011;7723;52.170;9.978;2022-08-24T14:19:40;4.25;;;1.90;;
15240;SDS011;7723;52.170;9.978;2022-08-24T14:22:17;3.90;;;2.20;;
15240;SDS011;7723;52.170;9.978;2022-08-24T14:25:00;2.72;;;2.10;;
15240;SDS011;7723;52.170;9.978;2022-08-24T14:27:40;3.33;;;2.17;;
15240;SDS011;7723;52.170;9.978;2022-08-24T14:33:04;3.00;;;1.92;;
15240;SDS011;7723;52.170;9.978;2022-08-24T14:35:38;6.03;;;2.33;;
15240;SDS011;7723;52.170;9.978;2022-08-24T14:41:24;2.08;;;1.88;;
15240;SDS011;7723;52.170;9.978;2022-08-24T14:44:09;2.10;;;1.80;;
15240;SDS011;7723;52.170;9.978;2022-08-24T14:46:47;2.88;;;2.15;;
15240;SDS011;7723;52.170;9.978;2022-08-24T14:49:21;3.03;;;2.08;;
15240;SDS011;7723;52.170;9.978;2022-08-24T14:54:46;3.28;;;2.05;;
15240;SDS011;7723;52.170;9.978;2022-08-24T14:57:38;3.38;;;2.25;;
15240;SDS011;7723;52.170;9.978;2022-08-24T15:00:13;3.10;;;2.13;;
15240;SDS011;7723;52.170;9.978;2022-08-24T15:02:52;3.47;;;2.00;;
15240;SDS011;7723;52.170;9.978;2022-08-24T15:05:45;3.88;;;2.35;;
15240;SDS011;7723;52.170;9.978;2022-08-24T15:08:27;3.55;;;2.30;;
15240;SDS011;7723;52.170;9.978;2022-08-24T15:11:00;4.43;;;2.72;;
15240;SDS011;7723;52.170;9.978;2022-08-24T15:13:36;5.38;;;2.20;;
15240;SDS011;7723;52.170;9.978;2022-08-24T15:16:09;3.15;;;2.20;;
15240;SDS011;7723;52.170;9.978;2022-08-24T15:18:40;2.20;;;1.98;;
15240;SDS011;7723;52.170;9.978;2022-08-24T15:21:21;4.03;;;2.38;;
15240;SDS011;7723;52.170;9.978;2022-08-24T15:24:04;2.35;;;2.15;;
15240;SDS011;7723;52.170;9.978;2022-08-24T15:26:48;3.45;;;2.60;;
15240;SDS011;7723;52.170;9.978;2022-08-24T15:29:47;3.95;;;2.22;;
15240;SDS011;7723;52.170;9.978;2022-08-24T15:32:18;2.90;;;2.58;;
15240;SDS011;7723;52.170;9.978;2022-08-24T15:34:48;3.25;;;2.35;;
15240;SDS011;7723;52.170;9.978;2022-08-24T15:37:24;4.22;;;2.03;;
15240;SDS011;7723;52.170;9.978;2022-08-24T15:39:53;2.72;;;2.00;;
15240;SDS011;7723;52.170;9.978;2022-08-24T15:42:20;3.70;;;2.17;;
15240;SDS011;7723;52.170;9.978;2022-08-24T15:44:49;5.20;;;2.40;;
15240;SDS011;7723;52.170;9.978;2022-08-24T15:47:23;2.67;;;1.98;;
15240;SDS011;7723;52.170;9.978;2022-08-24T15:49:55;4.03;;;1.95;;
15240;SDS011;7723;52.170;9.978;2022-08-24T15:52:36;4.22;;;2.13;;
15240;SDS011;7723;52.170;9.978;2022-08-24T15:55:11;3.33;;;2.00;;
15240;SDS011;7723;52.170;9.978;2022-08-24T15:57:51;5.13;;;2.30;;
15240;SDS011;7723;52.170;9.978;2022-08-24T16:00:22;5.20;;;1.75;;
15240;SDS011;7723;52.170;9.978;2022-08-24T16:03:22;2.28;;;2.03;;
15240;SDS011;7723;52.170;9.978;2022-08-24T16:05:51;4.50;;;2.10;;
15240;SDS011;7723;52.170;9.978;2022-08-24T16:08:20;2.13;;;1.90;;
15240;SDS011;7723;52.170;9.978;2022-08-24T16:10:48;3.92;;;2.30;;
15240;SDS011;7723;52.170;9.978;2022-08-24T16:13:23;2.97;;;2.70;;